| time (UTC) | temp F | wind direction | speed MPH | gust MPH | rain 1hr in | rain 24hr in | rain mn in | humidity % | barometer mb |
| 20260508053045 | 36 | 0 | 0.0 | 0.0 | 0.00 | 0.00 | 0.00 | 75 | 1021.0 |
| 20260508053035 | 37 | 332 | 0.0 | 0.0 | 0.00 | 0.21 | 0.21 | 71 | 1015.4 |
| 20260508051550 | 36 | 0 | 0.0 | 0.0 | 0.00 | 0.00 | 0.00 | 72 | 1021.3 |
| 20260508051532 | 38 | 332 | 0.0 | 0.0 | 0.00 | 0.21 | 0.21 | 69 | 1015.7 |
| 20260508050037 | 37 | 0 | 0.0 | 0.0 | 0.00 | 0.00 | 0.00 | 73 | 1021.2 |
| 20260508050031 | 39 | 332 | 0.0 | 0.0 | 0.00 | 0.21 | 0.21 | 67 | 1015.8 |
| 20260508044537 | 38 | 0 | 0.0 | 0.0 | 0.00 | 0.00 | 0.00 | 69 | 1021.2 |
| 20260508044530 | 40 | 332 | 0.0 | 0.0 | 0.00 | 0.21 | 0.21 | 66 | 1015.8 |
| 20260508043049 | 40 | 332 | 0.0 | 0.0 | 0.00 | 0.21 | 0.21 | 63 | 1015.7 |
| 20260508043036 | 39 | 0 | 0.0 | 0.0 | 0.00 | 0.00 | 0.00 | 67 | 1021.0 |
| 20260508041542 | 40 | 0 | 0.0 | 0.0 | 0.00 | 0.00 | 0.00 | 61 | 1021.2 |
| 20260508041530 | 42 | 332 | 0.0 | 0.0 | 0.00 | 0.21 | 0.21 | 62 | 1016.0 |
| 20260508040042 | 42 | 0 | 0.0 | 0.0 | 0.00 | 0.00 | 0.00 | 57 | 1021.2 |
| 20260508040031 | 43 | 332 | 0.0 | 0.0 | 0.00 | 0.21 | 0.21 | 60 | 1016.2 |
| 20260508034541 | 42 | 0 | 0.0 | 0.0 | 0.00 | 0.00 | 0.00 | 60 | 1021.3 |
| 20260508034529 | 43 | 332 | 0.0 | 0.0 | 0.00 | 0.21 | 0.21 | 60 | 1016.3 |
| 20260508033042 | 42 | 0 | 0.0 | 2.0 | 0.00 | 0.00 | 0.00 | 59 | 1021.1 |
| 20260508033031 | 43 | 332 | 0.0 | 0.0 | 0.00 | 0.21 | 0.21 | 59 | 1016.4 |
| 20260508031537 | 40 | 0 | 0.0 | 0.0 | 0.00 | 0.00 | 0.00 | 63 | 1020.9 |
| 20260508031528 | 43 | 332 | 0.0 | 0.0 | 0.00 | 0.21 | 0.21 | 58 | 1016.2 |
| 20260508030045 | 40 | 0 | 0.0 | 1.0 | 0.00 | 0.00 | 0.00 | 64 | 1020.6 |
| 20260508030041 | 44 | 332 | 0.0 | 0.0 | 0.00 | 0.21 | 0.21 | 54 | 1016.0 |
| 20260508024546 | 41 | 0 | 0.0 | 0.0 | 0.00 | 0.00 | 0.00 | 60 | 1020.6 |
| 20260508024532 | 44 | 332 | 0.0 | 0.0 | 0.00 | 0.21 | 0.21 | 53 | 1015.9 |
| 20260508023041 | 42 | 0 | 0.0 | 0.0 | 0.00 | 0.00 | 0.00 | 56 | 1020.5 |
| 20260508023025 | 44 | 333 | 0.0 | 0.0 | 0.00 | 0.21 | 0.21 | 50 | 1015.8 |
| 20260508021545 | 43 | 0 | 0.0 | 0.0 | 0.00 | 0.00 | 0.00 | 55 | 1020.3 |
| 20260508021527 | 45 | 336 | 0.0 | 0.0 | 0.00 | 0.21 | 0.21 | 45 | 1015.7 |
| 20260508020040 | 45 | 0 | 0.0 | 0.0 | 0.00 | 0.00 | 0.00 | 48 | 1020.1 |
| 20260508020025 | 47 | 336 | 2.0 | 9.0 | 0.00 | 0.21 | 0.21 | 43 | 1015.6 |
| 20260508014548 | 46 | 0 | 0.0 | 1.0 | 0.00 | 0.00 | 0.00 | 43 | 1020.0 |
| 20260508014525 | 47 | 311 | 0.0 | 1.0 | 0.00 | 0.22 | 0.21 | 43 | 1015.5 |
| 20260508013044 | 48 | 0 | 0.0 | 0.0 | 0.00 | 0.00 | 0.00 | 44 | 1020.0 |
| 20260508013024 | 48 | 310 | 0.0 | 1.0 | 0.00 | 0.22 | 0.21 | 40 | 1015.4 |
| 20260508011545 | 50 | 0 | 0.0 | 0.0 | 0.00 | 0.00 | 0.00 | 38 | 1019.9 |
| 20260508011523 | 50 | 313 | 0.0 | 1.0 | 0.00 | 0.22 | 0.21 | 39 | 1015.6 |
| 20260508010043 | 52 | 0 | 0.0 | 6.0 | 0.00 | 0.00 | 0.00 | 34 | 1020.0 |
| 20260508010025 | 53 | 360 | 0.0 | 1.0 | 0.00 | 0.22 | 0.21 | 37 | 1015.8 |
| 20260508004542 | 53 | 293 | 4.0 | 9.0 | 0.00 | 0.00 | 0.00 | 32 | 1020.2 |
| 20260508004519 | 54 | 5 | 0.0 | 6.0 | 0.00 | 0.22 | 0.21 | 30 | 1016.0 |
| 20260508003057 | 53 | 276 | 4.0 | 16.0 | 0.00 | 0.00 | 0.00 | 29 | 1020.0 |
| 20260508003018 | 56 | 128 | 0.0 | 10.0 | 0.00 | 0.22 | 0.21 | 27 | 1016.3 |
| 20260508001543 | 55 | 304 | 4.0 | 11.0 | 0.00 | 0.00 | 0.00 | 28 | 1019.9 |
| 20260508001518 | 58 | 322 | 1.0 | 13.0 | 0.00 | 0.22 | 0.21 | 26 | 1016.2 |
| 20260508000042 | 56 | 314 | 8.0 | 11.0 | 0.00 | 0.00 | 0.00 | 29 | 1020.0 |
| 20260508000015 | 57 | 14 | 1.0 | 3.0 | 0.00 | 0.23 | 0.21 | 29 | 1016.6 |
| 20260507234542 | 56 | 304 | 8.0 | 13.0 | 0.00 | 0.00 | 0.00 | 31 | 1020.0 |
| 20260507234514 | 57 | 277 | 6.0 | 12.0 | 0.00 | 0.23 | 0.21 | 26 | 1016.7 |
| 20260507233041 | 56 | 292 | 4.0 | 10.0 | 0.00 | 0.00 | 0.00 | 30 | 1020.0 |
| 20260507233013 | 58 | 355 | 1.0 | 10.0 | 0.00 | 0.23 | 0.21 | 26 | 1016.6 |
| 20260507231541 | 55 | 0 | 5.0 | 14.0 | 0.00 | 0.00 | 0.00 | 29 | 1020.1 |
| 20260507231517 | 57 | 55 | 5.0 | 10.0 | 0.00 | 0.23 | 0.21 | 29 | 1016.9 |
| 20260507230042 | 57 | 336 | 6.0 | 12.0 | 0.00 | 0.00 | 0.00 | 26 | 1020.2 |
| 20260507230013 | 56 | 296 | 0.0 | 8.0 | 0.00 | 0.24 | 0.21 | 27 | 1016.9 |
| 20260507224558 | 57 | 328 | 9.0 | 17.0 | 0.00 | 0.00 | 0.00 | 27 | 1020.1 |
| 20260507224511 | 57 | 42 | 0.0 | 2.0 | 0.00 | 0.24 | 0.21 | 30 | 1017.0 |
| 20260507223039 | 56 | 291 | 7.0 | 15.0 | 0.00 | 0.00 | 0.00 | 30 | 1020.2 |
| 20260507223009 | 55 | 248 | 5.0 | 11.0 | 0.00 | 0.24 | 0.21 | 27 | 1017.2 |
| 20260507221543 | 56 | 239 | 4.0 | 19.0 | 0.00 | 0.00 | 0.00 | 27 | 1020.3 |
| 20260507221509 | 57 | 84 | 0.0 | 4.0 | 0.00 | 0.24 | 0.21 | 27 | 1017.4 |
| 20260507220040 | 56 | 288 | 9.0 | 17.0 | 0.00 | 0.00 | 0.00 | 27 | 1020.3 |
| 20260507220007 | 58 | 360 | 1.0 | 12.0 | 0.00 | 0.25 | 0.21 | 27 | 1017.5 |
| 20260507214537 | 56 | 240 | 5.0 | 11.0 | 0.00 | 0.00 | 0.00 | 27 | 1020.3 |
| 20260507214506 | 56 | 290 | 2.0 | 7.0 | 0.00 | 0.25 | 0.21 | 26 | 1017.8 |
| 20260507213040 | 57 | 139 | 6.0 | 19.0 | 0.00 | 0.00 | 0.00 | 28 | 1020.4 |
| 20260507213004 | 58 | 71 | 0.0 | 11.0 | 0.00 | 0.25 | 0.21 | 29 | 1018.1 |
| 20260507211549 | 57 | 291 | 5.0 | 13.0 | 0.00 | 0.00 | 0.00 | 26 | 1020.5 |
| 20260507211501 | 57 | 15 | 2.0 | 12.0 | 0.00 | 0.25 | 0.21 | 28 | 1018.4 |
| 20260507210100 | 58 | 327 | 1.0 | 12.0 | 0.00 | 0.25 | 0.21 | 27 | 1018.7 |
| 20260507210042 | 57 | 305 | 4.0 | 11.0 | 0.00 | 0.00 | 0.00 | 29 | 1020.6 |
| 20260507204602 | 56 | 44 | 3.0 | 10.0 | 0.00 | 0.27 | 0.21 | 29 | 1019.1 |
| 20260507204543 | 56 | 304 | 6.0 | 18.0 | 0.00 | 0.03 | 0.00 | 26 | 1020.8 |
| 20260507203056 | 58 | 228 | 0.0 | 7.0 | 0.00 | 0.27 | 0.21 | 24 | 1019.1 |
| 20260507203042 | 56 | 292 | 5.0 | 15.0 | 0.00 | 0.03 | 0.00 | 30 | 1020.8 |
| 20260507201602 | 55 | 313 | 0.0 | 10.0 | 0.00 | 0.27 | 0.21 | 28 | 1019.4 |
| 20260507201540 | 55 | 313 | 6.0 | 15.0 | 0.00 | 0.03 | 0.00 | 29 | 1020.8 |
| 20260507200056 | 55 | 286 | 6.0 | 15.0 | 0.01 | 0.27 | 0.21 | 26 | 1019.6 |
| 20260507200038 | 55 | 285 | 7.0 | 17.0 | 0.00 | 0.03 | 0.00 | 27 | 1021.0 |
| 20260507194558 | 55 | 24 | 2.0 | 11.0 | 0.02 | 0.28 | 0.21 | 31 | 1019.7 |
| 20260507194539 | 55 | 300 | 9.0 | 19.0 | 0.00 | 0.19 | 0.00 | 30 | 1020.9 |
| 20260507193048 | 56 | 355 | 2.0 | 8.0 | 0.03 | 0.28 | 0.21 | 31 | 1019.9 |
| 20260507193036 | 55 | 304 | 7.0 | 18.0 | 0.00 | 0.19 | 0.00 | 31 | 1021.0 |
| 20260507191603 | 55 | 11 | 1.0 | 7.0 | 0.04 | 0.28 | 0.21 | 31 | 1020.3 |
| 20260507191548 | 55 | 328 | 3.0 | 9.0 | 0.00 | 0.19 | 0.00 | 30 | 1021.5 |
| 20260507190041 | 53 | 105 | 0.0 | 9.0 | 0.04 | 0.28 | 0.20 | 34 | 1020.6 |
| 20260507184544 | 53 | 71 | 0.0 | 3.0 | 0.05 | 0.28 | 0.19 | 37 | 1020.8 |
| 20260507184540 | 53 | 224 | 2.0 | 10.0 | 0.00 | 0.24 | 0.00 | 29 | 1021.7 |
| 20260507183042 | 51 | 5 | 1.0 | 4.0 | 0.05 | 0.27 | 0.18 | 35 | 1021.3 |
| 20260507183036 | 53 | 358 | 2.0 | 6.0 | 0.00 | 0.24 | 0.00 | 27 | 1021.9 |
| 20260507181537 | 51 | 293 | 2.0 | 11.0 | 0.00 | 0.24 | 0.00 | 29 | 1022.0 |
| 20260507181530 | 51 | 22 | 0.0 | 4.0 | 0.06 | 0.26 | 0.17 | 36 | 1021.4 |
| 20260507180043 | 50 | 314 | 3.0 | 9.0 | 0.00 | 0.24 | 0.00 | 33 | 1022.3 |
| 20260507180026 | 51 | 331 | 1.0 | 7.0 | 0.06 | 0.25 | 0.16 | 35 | 1022.0 |
| 20260507174542 | 50 | 307 | 3.0 | 9.0 | 0.00 | 0.24 | 0.00 | 34 | 1022.3 |
| 20260507174530 | 49 | 355 | 0.0 | 3.0 | 0.06 | 0.23 | 0.14 | 42 | 1022.2 |
| 20260507173037 | 49 | 312 | 2.0 | 7.0 | 0.00 | 0.24 | 0.00 | 36 | 1022.5 |
| 20260507173018 | 48 | 115 | 0.0 | 3.0 | 0.06 | 0.22 | 0.13 | 38 | 1022.5 |
| 20260507171537 | 48 | 295 | 5.0 | 9.0 | 0.00 | 0.24 | 0.00 | 36 | 1022.7 |
| 20260507171525 | 47 | 341 | 1.0 | 5.0 | 0.06 | 0.20 | 0.11 | 36 | 1022.9 |
| 20260507170037 | 47 | 319 | 5.0 | 12.0 | 0.00 | 0.24 | 0.00 | 35 | 1022.9 |
| 20260507170010 | 47 | 360 | 1.0 | 7.0 | 0.06 | 0.20 | 0.10 | 39 | 1023.2 |
| 20260507164537 | 46 | 304 | 3.0 | 8.0 | 0.00 | 0.24 | 0.00 | 37 | 1022.9 |
| 20260507164508 | 46 | 338 | 0.0 | 2.0 | 0.06 | 0.18 | 0.08 | 38 | 1023.4 |
| 20260507163042 | 44 | 287 | 3.0 | 7.0 | 0.00 | 0.24 | 0.00 | 38 | 1023.1 |
| 20260507163001 | 44 | 360 | 0.0 | 3.0 | 0.05 | 0.16 | 0.06 | 41 | 1023.7 |
| 20260507161606 | 42 | 173 | 0.0 | 2.0 | 0.04 | 0.15 | 0.05 | 39 | 1024.0 |
| 20260507161541 | 43 | 293 | 3.0 | 6.0 | 0.00 | 0.24 | 0.00 | 39 | 1023.4 |
| 20260507160054 | 41 | 142 | 0.0 | 0.0 | 0.04 | 0.14 | 0.04 | 38 | 1024.3 |
| 20260507160041 | 42 | 300 | 3.0 | 5.0 | 0.00 | 0.24 | 0.00 | 41 | 1023.5 |
| 20260507154550 | 40 | 140 | 0.0 | 0.0 | 0.02 | 0.12 | 0.02 | 41 | 1024.5 |
| 20260507154540 | 40 | 302 | 3.0 | 5.0 | 0.00 | 0.24 | 0.00 | 36 | 1023.7 |
| 20260507153044 | 38 | 140 | 0.0 | 0.0 | 0.01 | 0.11 | 0.01 | 37 | 1024.9 |
| 20260507153037 | 39 | 0 | 0.0 | 2.0 | 0.00 | 0.24 | 0.00 | 33 | 1024.0 |
| 20260507151541 | 37 | 140 | 0.0 | 0.0 | 0.01 | 0.11 | 0.01 | 38 | 1024.9 |
| 20260507151537 | 37 | 0 | 0.0 | 3.0 | 0.00 | 0.24 | 0.00 | 34 | 1024.2 |
| 20260507150041 | 34 | 0 | 2.0 | 4.0 | 0.00 | 0.24 | 0.00 | 38 | 1024.2 |
| 20260507150038 | 35 | 159 | 0.0 | 3.0 | 0.00 | 0.10 | 0.00 | 39 | 1024.9 |
| 20260507144541 | 31 | 140 | 2.0 | 4.0 | 0.00 | 0.24 | 0.00 | 43 | 1024.4 |
| 20260507144533 | 34 | 177 | 0.0 | 2.0 | 0.00 | 0.11 | 0.00 | 44 | 1025.0 |
| 20260507143052 | 32 | 180 | 1.0 | 4.0 | 0.00 | 0.11 | 0.00 | 41 | 1025.1 |
| 20260507143040 | 28 | 127 | 2.0 | 6.0 | 0.00 | 0.24 | 0.00 | 49 | 1024.5 |
| 20260507141537 | 26 | 176 | 3.0 | 5.0 | 0.00 | 0.24 | 0.00 | 57 | 1024.5 |
| 20260507141528 | 30 | 200 | 0.0 | 3.0 | 0.00 | 0.11 | 0.00 | 48 | 1025.2 |
| 20260507140047 | 23 | 110 | 1.0 | 5.0 | 0.00 | 0.24 | 0.00 | 64 | 1024.6 |
| 20260507140020 | 28 | 216 | 1.0 | 6.0 | 0.00 | 0.11 | 0.00 | 51 | 1025.3 |
| 20260507134537 | 21 | 118 | 2.0 | 4.0 | 0.00 | 0.24 | 0.00 | 72 | 1024.7 |
| 20260507134517 | 27 | 163 | 2.0 | 7.0 | 0.00 | 0.11 | 0.00 | 54 | 1025.3 |
| 20260507133035 | 20 | 125 | 1.0 | 2.0 | 0.00 | 0.24 | 0.00 | 79 | 1024.8 |
| 20260507133012 | 25 | 166 | 0.0 | 2.0 | 0.00 | 0.11 | 0.00 | 63 | 1025.4 |
| 20260507131544 | 19 | 143 | 0.0 | 1.0 | 0.00 | 0.24 | 0.00 | 83 | 1024.7 |
| 20260507131511 | 23 | 190 | 0.0 | 1.0 | 0.00 | 0.11 | 0.00 | 60 | 1025.4 |
| 20260507130038 | 18 | 0 | 0.0 | 2.0 | 0.00 | 0.24 | 0.00 | 84 | 1024.6 |
| 20260507130017 | 22 | 246 | 1.0 | 7.0 | 0.00 | 0.11 | 0.00 | 62 | 1025.3 |
| 20260507124540 | 18 | 0 | 0.0 | 2.0 | 0.00 | 0.24 | 0.00 | 86 | 1024.4 |
| 20260507124504 | 22 | 246 | 0.0 | 7.0 | 0.00 | 0.11 | 0.00 | 63 | 1024.9 |
| 20260507123036 | 17 | 0 | 0.0 | 0.0 | 0.00 | 0.24 | 0.00 | 86 | 1024.5 |
| 20260507123002 | 22 | 226 | 1.0 | 9.0 | 0.00 | 0.11 | 0.00 | 61 | 1024.9 |
| 20260507121536 | 17 | 0 | 0.0 | 0.0 | 0.00 | 0.24 | 0.00 | 86 | 1024.4 |
| 20260507121502 | 22 | 236 | 0.0 | 8.0 | 0.00 | 0.11 | 0.00 | 61 | 1024.7 |
| 20260507120100 | 22 | 223 | 0.0 | 6.0 | 0.00 | 0.11 | 0.00 | 63 | 1024.7 |
| 20260507120042 | 17 | 0 | 0.0 | 0.0 | 0.00 | 0.24 | 0.00 | 87 | 1024.4 |
| 20260507114600 | 22 | 202 | 1.0 | 7.0 | 0.00 | 0.11 | 0.00 | 63 | 1024.7 |
| 20260507114542 | 17 | 0 | 0.0 | 0.0 | 0.00 | 0.24 | 0.00 | 87 | 1024.5 |
| 20260507113058 | 22 | 253 | 4.0 | 8.0 | 0.00 | 0.11 | 0.00 | 65 | 1024.7 |
| 20260507113042 | 17 | 0 | 0.0 | 0.0 | 0.00 | 0.24 | 0.00 | 87 | 1024.4 |
| 20260507111557 | 22 | 209 | 0.0 | 4.0 | 0.00 | 0.11 | 0.00 | 63 | 1024.6 |
| 20260507111544 | 18 | 0 | 0.0 | 0.0 | 0.00 | 0.24 | 0.00 | 87 | 1024.4 |
| 20260507110057 | 22 | 239 | 0.0 | 5.0 | 0.00 | 0.11 | 0.00 | 65 | 1024.4 |
| 20260507110037 | 18 | 0 | 0.0 | 0.0 | 0.00 | 0.24 | 0.00 | 86 | 1024.4 |
| 20260507104559 | 22 | 245 | 0.0 | 10.0 | 0.00 | 0.11 | 0.00 | 66 | 1024.4 |
| 20260507104537 | 18 | 0 | 0.0 | 0.0 | 0.00 | 0.24 | 0.00 | 86 | 1024.6 |
| 20260507103052 | 23 | 232 | 3.0 | 8.0 | 0.00 | 0.11 | 0.00 | 64 | 1024.7 |
| 20260507103034 | 19 | 0 | 0.0 | 0.0 | 0.00 | 0.24 | 0.00 | 84 | 1024.8 |
| 20260507101558 | 19 | 0 | 0.0 | 0.0 | 0.00 | 0.24 | 0.00 | 85 | 1024.8 |
| 20260507101550 | 23 | 252 | 3.0 | 6.0 | 0.00 | 0.11 | 0.00 | 66 | 1024.6 |
| 20260507100055 | 23 | 202 | 0.0 | 8.0 | 0.00 | 0.11 | 0.00 | 66 | 1024.6 |
| 20260507100040 | 19 | 0 | 0.0 | 0.0 | 0.00 | 0.24 | 0.00 | 83 | 1024.8 |
| 20260507094551 | 20 | 0 | 0.0 | 0.0 | 0.00 | 0.24 | 0.00 | 82 | 1024.7 |
| 20260507094548 | 23 | 239 | 1.0 | 9.0 | 0.00 | 0.11 | 0.00 | 66 | 1024.4 |
| 20260507093044 | 24 | 236 | 2.0 | 9.0 | 0.00 | 0.11 | 0.00 | 66 | 1024.2 |
| 20260507093037 | 20 | 0 | 0.0 | 0.0 | 0.00 | 0.24 | 0.00 | 83 | 1024.5 |
| 20260507091551 | 20 | 0 | 0.0 | 0.0 | 0.00 | 0.24 | 0.00 | 83 | 1024.5 |
| 20260507091542 | 24 | 221 | 0.0 | 7.0 | 0.00 | 0.11 | 0.00 | 68 | 1024.1 |
| 20260507090049 | 24 | 254 | 5.0 | 9.0 | 0.00 | 0.11 | 0.00 | 67 | 1024.1 |
| 20260507090040 | 21 | 0 | 0.0 | 2.0 | 0.00 | 0.24 | 0.00 | 81 | 1024.4 |
| 20260507084547 | 24 | 236 | 4.0 | 8.0 | 0.00 | 0.11 | 0.00 | 67 | 1024.1 |
| 20260507084542 | 21 | 0 | 0.0 | 0.0 | 0.00 | 0.24 | 0.00 | 81 | 1024.5 |
| 20260507083042 | 21 | 0 | 0.0 | 0.0 | 0.00 | 0.24 | 0.00 | 82 | 1024.7 |
| 20260507083036 | 24 | 244 | 1.0 | 7.0 | 0.00 | 0.11 | 0.00 | 68 | 1024.1 |
| 20260507081551 | 21 | 0 | 0.0 | 0.0 | 0.00 | 0.24 | 0.00 | 82 | 1024.5 |
| 20260507081535 | 25 | 242 | 2.0 | 8.0 | 0.00 | 0.11 | 0.00 | 67 | 1023.8 |
| 20260507080037 | 22 | 0 | 0.0 | 0.0 | 0.00 | 0.24 | 0.00 | 83 | 1024.5 |
| 20260507080031 | 25 | 261 | 3.0 | 9.0 | 0.00 | 0.11 | 0.00 | 68 | 1023.6 |
| 20260507074540 | 22 | 0 | 0.0 | 0.0 | 0.00 | 0.24 | 0.00 | 82 | 1024.4 |
| 20260507074530 | 24 | 245 | 0.0 | 6.0 | 0.00 | 0.11 | 0.00 | 69 | 1023.5 |
| 20260507073044 | 22 | 0 | 0.0 | 0.0 | 0.00 | 0.24 | 0.00 | 80 | 1024.5 |
| 20260507073031 | 25 | 223 | 0.0 | 0.0 | 0.00 | 0.11 | 0.00 | 68 | 1023.6 |
| 20260507071543 | 22 | 0 | 0.0 | 0.0 | 0.00 | 0.24 | 0.00 | 81 | 1024.5 |
| 20260507071533 | 25 | 232 | 0.0 | 0.0 | 0.00 | 0.11 | 0.00 | 70 | 1023.6 |
| 20260507070110 | 23 | 0 | 0.0 | 0.0 | 0.00 | 0.24 | 0.00 | 79 | 1024.8 |
| 20260507070031 | 23 | 231 | 0.0 | 6.0 | 0.00 | 0.11 | 0.00 | 76 | 1023.8 |
| 20260507064548 | 23 | 0 | 0.0 | 0.0 | 0.00 | 0.24 | 0.00 | 77 | 1024.9 |
| 20260507064534 | 23 | 302 | 0.0 | 0.0 | 0.00 | 0.11 | 0.00 | 80 | 1023.9 |
| 20260507063040 | 24 | 0 | 0.0 | 0.0 | 0.00 | 0.24 | 0.00 | 75 | 1024.5 |
| 20260507063020 | 24 | 302 | 0.0 | 0.0 | 0.00 | 0.11 | 0.00 | 79 | 1023.5 |
| 20260507061540 | 25 | 0 | 0.0 | 0.0 | 0.00 | 0.24 | 0.00 | 71 | 1024.3 |
| 20260507061517 | 24 | 302 | 0.0 | 0.0 | 0.00 | 0.11 | 0.00 | 78 | 1023.4 |
| 20260507060040 | 26 | 0 | 0.0 | 2.0 | 0.00 | 0.24 | 0.00 | 65 | 1024.0 |
| 20260507060012 | 25 | 302 | 0.0 | 0.0 | 0.00 | 0.11 | 0.11 | 78 | 1023.1 |
| 20260507054536 | 26 | 0 | 0.0 | 0.0 | 0.00 | 0.24 | 0.24 | 68 | 1023.9 |
| 20260507054512 | 25 | 302 | 0.0 | 0.0 | 0.00 | 0.11 | 0.11 | 77 | 1022.9 |